sensor_id;sensor_type;location;lat;lon;timestamp;pressure;altitude;pressure_sealevel;temperature;humidity
73151;BME280;61354;50.758;6.106;2023-03-20T00:00:12;99598.84;;;7.57;95.14
73151;BME280;61354;50.758;6.106;2023-03-20T00:02:40;99597.38;;;7.60;95.18
73151;BME280;61354;50.758;6.106;2023-03-20T00:05:17;99594.28;;;7.61;95.26
73151;BME280;61354;50.758;6.106;2023-03-20T00:07:45;99598.84;;;7.57;95.86
73151;BME280;61354;50.758;6.106;2023-03-20T00:10:10;99600.44;;;7.67;95.10
73151;BME280;61354;50.758;6.106;2023-03-20T00:12:36;99608.13;;;7.53;95.48
73151;BME280;61354;50.758;6.106;2023-03-20T00:15:04;99600.63;;;7.62;95.89
73151;BME280;61354;50.758;6.106;2023-03-20T00:17:31;99606.00;;;7.58;95.40
73151;BME280;61354;50.758;6.106;2023-03-20T00:19:56;99607.63;;;7.59;95.38
73151;BME280;61354;50.758;6.106;2023-03-20T00:22:22;99601.13;;;7.55;95.65
73151;BME280;61354;50.758;6.106;2023-03-20T00:24:47;99615.91;;;7.68;96.30
73151;BME280;61354;50.758;6.106;2023-03-20T00:27:14;99616.22;;;7.66;95.27
73151;BME280;61354;50.758;6.106;2023-03-20T00:29:40;99620.31;;;7.60;95.67
73151;BME280;61354;50.758;6.106;2023-03-20T00:32:14;99628.44;;;7.48;95.80
73151;BME280;61354;50.758;6.106;2023-03-20T00:34:40;99636.09;;;7.51;95.80
73151;BME280;61354;50.758;6.106;2023-03-20T00:37:06;99628.44;;;7.57;95.32
73151;BME280;61354;50.758;6.106;2023-03-20T00:39:31;99627.47;;;7.53;95.21
73151;BME280;61354;50.758;6.106;2023-03-20T00:41:59;99630.06;;;7.32;96.21
73151;BME280;61354;50.758;6.106;2023-03-20T00:44:35;99628.28;;;7.44;95.44
73151;BME280;61354;50.758;6.106;2023-03-20T00:47:04;99639.50;;;7.31;96.54
73151;BME280;61354;50.758;6.106;2023-03-20T00:49:32;99640.78;;;7.42;96.16
73151;BME280;61354;50.758;6.106;2023-03-20T00:51:59;99634.94;;;7.52;95.97
73151;BME280;61354;50.758;6.106;2023-03-20T00:54:26;99626.16;;;7.33;96.19
73151;BME280;61354;50.758;6.106;2023-03-20T00:56:59;99625.50;;;7.36;96.83
73151;BME280;61354;50.758;6.106;2023-03-20T00:59:31;99634.94;;;7.52;95.81
73151;BME280;61354;50.758;6.106;2023-03-20T01:01:59;99637.69;;;7.26;96.36
73151;BME280;61354;50.758;6.106;2023-03-20T01:04:33;99627.13;;;7.37;96.09
73151;BME280;61354;50.758;6.106;2023-03-20T01:06:59;99638.69;;;7.47;95.52
73151;BME280;61354;50.758;6.106;2023-03-20T01:09:25;99614.63;;;7.48;95.43
73151;BME280;61354;50.758;6.106;2023-03-20T01:11:51;99623.72;;;7.22;95.79
73151;BME280;61354;50.758;6.106;2023-03-20T01:14:17;99609.91;;;7.22;94.85
73151;BME280;61354;50.758;6.106;2023-03-20T01:16:43;99608.59;;;7.29;95.46
73151;BME280;61354;50.758;6.106;2023-03-20T01:19:12;99599.84;;;7.27;95.48
73151;BME280;61354;50.758;6.106;2023-03-20T01:21:39;99601.28;;;7.33;95.49
73151;BME280;61354;50.758;6.106;2023-03-20T01:24:04;99587.81;;;7.22;96.12
73151;BME280;61354;50.758;6.106;2023-03-20T01:26:33;99584.72;;;7.15;95.57
73151;BME280;61354;50.758;6.106;2023-03-20T01:29:00;99574.47;;;7.07;96.10
73151;BME280;61354;50.758;6.106;2023-03-20T01:31:26;99566.53;;;7.14;96.07
73151;BME280;61354;50.758;6.106;2023-03-20T01:33:51;99567.50;;;7.10;97.05
73151;BME280;61354;50.758;6.106;2023-03-20T01:36:20;99566.53;;;7.06;96.83
73151;BME280;61354;50.758;6.106;2023-03-20T01:38:51;99569.59;;;7.04;96.83
73151;BME280;61354;50.758;6.106;2023-03-20T01:41:18;99571.88;;;7.02;97.41
73151;BME280;61354;50.758;6.106;2023-03-20T01:43:45;99561.63;;;6.85;97.95
73151;BME280;61354;50.758;6.106;2023-03-20T01:51:18;99563.72;;;6.80;98.79
73151;BME280;61354;50.758;6.106;2023-03-20T01:53:46;99566.34;;;6.93;98.29
73151;BME280;61354;50.758;6.106;2023-03-20T01:56:14;99572.06;;;6.97;98.02
73151;BME280;61354;50.758;6.106;2023-03-20T01:58:42;99578.66;;;6.79;98.60
73151;BME280;61354;50.758;6.106;2023-03-20T02:01:11;99591.19;;;6.76;98.11
73151;BME280;61354;50.758;6.106;2023-03-20T02:03:39;99597.63;;;6.71;99.29
73151;BME280;61354;50.758;6.106;2023-03-20T02:06:07;99596.81;;;6.62;99.61
73151;BME280;61354;50.758;6.106;2023-03-20T02:08:36;99586.22;;;6.47;99.64
73151;BME280;61354;50.758;6.106;2023-03-20T02:11:04;99562.72;;;6.58;98.76
73151;BME280;61354;50.758;6.106;2023-03-20T02:13:30;99561.91;;;6.66;98.49
73151;BME280;61354;50.758;6.106;2023-03-20T02:18:29;99589.66;;;6.53;98.31
73151;BME280;61354;50.758;6.106;2023-03-20T02:58:23;99542.44;;;6.06;100.00
73151;BME280;61354;50.758;6.106;2023-03-20T03:01:04;99538.84;;;6.05;100.00
73151;BME280;61354;50.758;6.106;2023-03-20T03:03:43;99535.97;;;6.10;100.00
73151;BME280;61354;50.758;6.106;2023-03-20T03:06:17;99550.22;;;6.12;100.00
73151;BME280;61354;50.758;6.106;2023-03-20T03:08:49;99560.44;;;6.12;100.00
73151;BME280;61354;50.758;6.106;2023-03-20T03:11:16;99576.16;;;6.03;100.00
73151;BME280;61354;50.758;6.106;2023-03-20T03:13:47;99574.69;;;6.05;100.00
73151;BME280;61354;50.758;6.106;2023-03-20T03:16:25;99576.69;;;5.91;100.00
73151;BME280;61354;50.758;6.106;2023-03-20T03:18:58;99587.34;;;5.84;100.00
73151;BME280;61354;50.758;6.106;2023-03-20T03:21:27;99595.25;;;5.99;100.00
73151;BME280;61354;50.758;6.106;2023-03-20T03:23:54;99597.41;;;5.88;100.00
73151;BME280;61354;50.758;6.106;2023-03-20T03:26:38;99603.88;;;5.84;100.00
73151;BME280;61354;50.758;6.106;2023-03-20T03:29:10;99609.56;;;5.56;100.00
73151;BME280;61354;50.758;6.106;2023-03-20T03:31:37;99605.22;;;5.64;100.00
73151;BME280;61354;50.758;6.106;2023-03-20T03:34:03;99607.41;;;5.76;100.00
73151;BME280;61354;50.758;6.106;2023-03-20T03:36:40;99612.00;;;5.89;100.00
73151;BME280;61354;50.758;6.106;2023-03-20T03:41:48;99595.13;;;5.82;100.00
73151;BME280;61354;50.758;6.106;2023-03-20T03:44:28;99590.72;;;6.03;100.00
73151;BME280;61354;50.758;6.106;2023-03-20T03:47:05;99593.81;;;6.02;100.00
73151;BME280;61354;50.758;6.106;2023-03-20T03:49:36;99590.88;;;5.98;100.00
73151;BME280;61354;50.758;6.106;2023-03-20T03:52:08;99573.56;;;6.06;100.00
73151;BME280;61354;50.758;6.106;2023-03-20T03:54:40;99583.34;;;5.90;100.00
73151;BME280;61354;50.758;6.106;2023-03-20T03:57:09;99573.91;;;5.82;100.00
73151;BME280;61354;50.758;6.106;2023-03-20T03:59:41;99587.91;;;5.72;100.00
73151;BME280;61354;50.758;6.106;2023-03-20T04:02:08;99592.22;;;5.87;100.00
73151;BME280;61354;50.758;6.106;2023-03-20T04:04:36;99589.63;;;5.82;100.00
73151;BME280;61354;50.758;6.106;2023-03-20T04:07:03;99592.38;;;5.82;100.00
73151;BME280;61354;50.758;6.106;2023-03-20T04:09:29;99584.09;;;5.82;100.00
73151;BME280;61354;50.758;6.106;2023-03-20T04:11:55;99582.75;;;5.70;100.00
73151;BME280;61354;50.758;6.106;2023-03-20T04:14:20;99572.84;;;5.69;100.00
73151;BME280;61354;50.758;6.106;2023-03-20T04:16:46;99571.53;;;5.67;100.00
73151;BME280;61354;50.758;6.106;2023-03-20T04:19:12;99567.09;;;5.57;100.00
73151;BME280;61354;50.758;6.106;2023-03-20T04:21:38;99563.72;;;5.60;100.00
73151;BME280;61354;50.758;6.106;2023-03-20T04:24:03;99558.97;;;5.52;100.00
73151;BME280;61354;50.758;6.106;2023-03-20T04:26:29;99539.56;;;5.57;100.00
73151;BME280;61354;50.758;6.106;2023-03-20T04:28:55;99555.94;;;5.62;100.00
73151;BME280;61354;50.758;6.106;2023-03-20T04:31:20;99563.59;;;5.65;100.00
73151;BME280;61354;50.758;6.106;2023-03-20T04:33:47;99551.72;;;5.56;100.00
73151;BME280;61354;50.758;6.106;2023-03-20T04:36:12;99566.47;;;5.60;100.00
73151;BME280;61354;50.758;6.106;2023-03-20T04:38:38;99579.50;;;5.68;100.00
73151;BME280;61354;50.758;6.106;2023-03-20T04:41:04;99575.59;;;5.69;100.00
73151;BME280;61354;50.758;6.106;2023-03-20T04:43:30;99578.03;;;5.71;100.00
73151;BME280;61354;50.758;6.106;2023-03-20T04:45:56;99572.84;;;5.69;100.00
73151;BME280;61354;50.758;6.106;2023-03-20T04:48:21;99582.50;;;5.58;100.00
73151;BME280;61354;50.758;6.106;2023-03-20T04:50:47;99579.94;;;5.62;100.00
73151;BME280;61354;50.758;6.106;2023-03-20T04:53:15;99579.41;;;5.60;100.00
73151;BME280;61354;50.758;6.106;2023-03-20T04:55:40;99578.97;;;5.66;100.00
73151;BME280;61354;50.758;6.106;2023-03-20T04:58:06;99571.00;;;5.56;100.00
73151;BME280;61354;50.758;6.106;2023-03-20T05:00:32;99566.97;;;5.62;100.00
73151;BME280;61354;50.758;6.106;2023-03-20T05:02:57;99567.59;;;5.59;100.00
73151;BME280;61354;50.758;6.106;2023-03-20T05:05:23;99574.03;;;5.55;100.00
73151;BME280;61354;50.758;6.106;2023-03-20T05:07:50;99570.16;;;5.56;100.00
73151;BME280;61354;50.758;6.106;2023-03-20T05:10:16;99561.81;;;5.47;100.00
73151;BME280;61354;50.758;6.106;2023-03-20T05:12:42;99564.09;;;5.45;100.00
73151;BME280;61354;50.758;6.106;2023-03-20T05:15:08;99569.59;;;5.45;100.00
73151;BME280;61354;50.758;6.106;2023-03-20T05:17:33;99574.50;;;5.48;100.00
73151;BME280;61354;50.758;6.106;2023-03-20T05:19:59;99567.34;;;5.47;100.00
73151;BME280;61354;50.758;6.106;2023-03-20T05:22:24;99567.34;;;5.47;100.00
73151;BME280;61354;50.758;6.106;2023-03-20T05:24:50;99577.31;;;5.57;100.00
73151;BME280;61354;50.758;6.106;2023-03-20T05:27:16;99570.81;;;5.53;100.00
73151;BME280;61354;50.758;6.106;2023-03-20T05:29:42;99565.09;;;5.49;100.00
73151;BME280;61354;50.758;6.106;2023-03-20T05:32:07;99554.09;;;5.49;100.00
73151;BME280;61354;50.758;6.106;2023-03-20T05:34:33;99549.00;;;5.42;100.00
73151;BME280;61354;50.758;6.106;2023-03-20T05:36:59;99555.16;;;5.39;100.00
73151;BME280;61354;50.758;6.106;2023-03-20T05:39:24;99546.72;;;5.36;100.00
73151;BME280;61354;50.758;6.106;2023-03-20T05:41:50;99546.72;;;5.36;100.00
73151;BME280;61354;50.758;6.106;2023-03-20T05:44:16;99554.97;;;5.36;100.00
73151;BME280;61354;50.758;6.106;2023-03-20T05:47:01;99545.44;;;5.42;100.00
73151;BME280;61354;50.758;6.106;2023-03-20T05:49:37;99553.97;;;5.32;100.00
73151;BME280;61354;50.758;6.106;2023-03-20T05:52:03;99560.28;;;5.32;100.00
73151;BME280;61354;50.758;6.106;2023-03-20T05:54:28;99559.56;;;5.27;100.00
73151;BME280;61354;50.758;6.106;2023-03-20T05:56:54;99569.47;;;5.28;100.00
73151;BME280;61354;50.758;6.106;2023-03-20T05:59:20;99560.22;;;5.23;100.00
73151;BME280;61354;50.758;6.106;2023-03-20T06:01:45;99569.47;;;5.28;100.00
73151;BME280;61354;50.758;6.106;2023-03-20T06:04:11;99571.44;;;5.27;100.00
73151;BME280;61354;50.758;6.106;2023-03-20T06:06:37;99579.28;;;5.42;100.00
73151;BME280;61354;50.758;6.106;2023-03-20T06:09:04;99567.28;;;5.38;100.00
73151;BME280;61354;50.758;6.106;2023-03-20T06:11:29;99557.59;;;5.41;100.00
73151;BME280;61354;50.758;6.106;2023-03-20T06:13:56;99564.53;;;5.38;100.00
73151;BME280;61354;50.758;6.106;2023-03-20T06:16:22;99559.81;;;5.39;100.00
73151;BME280;61354;50.758;6.106;2023-03-20T06:18:48;99564.84;;;5.37;100.00
73151;BME280;61354;50.758;6.106;2023-03-20T06:21:14;99572.34;;;5.45;100.00
73151;BME280;61354;50.758;6.106;2023-03-20T06:23:39;99560.22;;;5.46;100.00
73151;BME280;61354;50.758;6.106;2023-03-20T06:26:05;99566.53;;;5.46;100.00
73151;BME280;61354;50.758;6.106;2023-03-20T06:28:31;99555.09;;;5.53;100.00
73151;BME280;61354;50.758;6.106;2023-03-20T06:30:57;99544.72;;;5.59;100.00
73151;BME280;61354;50.758;6.106;2023-03-20T06:33:22;99544.44;;;5.60;100.00
73151;BME280;61354;50.758;6.106;2023-03-20T06:35:48;99550.94;;;5.64;100.00
73151;BME280;61354;50.758;6.106;2023-03-20T06:38:14;99556.13;;;5.66;100.00
73151;BME280;61354;50.758;6.106;2023-03-20T06:40:40;99550.28;;;5.67;100.00
73151;BME280;61354;50.758;6.106;2023-03-20T06:43:07;99543.50;;;5.65;100.00
73151;BME280;61354;50.758;6.106;2023-03-20T06:45:35;99548.06;;;5.69;99.43
73151;BME280;61354;50.758;6.106;2023-03-20T06:48:05;99552.47;;;5.79;100.00
73151;BME280;61354;50.758;6.106;2023-03-20T06:50:30;99573.72;;;5.79;99.87
73151;BME280;61354;50.758;6.106;2023-03-20T06:52:56;99575.47;;;5.74;99.08
73151;BME280;61354;50.758;6.106;2023-03-20T06:55:22;99584.59;;;5.84;99.38
73151;BME280;61354;50.758;6.106;2023-03-20T06:57:47;99587.88;;;5.63;99.85
73151;BME280;61354;50.758;6.106;2023-03-20T07:00:13;99591.75;;;5.62;99.31
73151;BME280;61354;50.758;6.106;2023-03-20T07:02:39;99596.56;;;5.79;98.59
73151;BME280;61354;50.758;6.106;2023-03-20T07:05:05;99600.06;;;5.71;98.42
73151;BME280;61354;50.758;6.106;2023-03-20T07:07:31;99594.81;;;5.83;98.62
73151;BME280;61354;50.758;6.106;2023-03-20T07:09:57;99600.66;;;5.82;98.37
73151;BME280;61354;50.758;6.106;2023-03-20T07:12:22;99592.13;;;5.69;98.62
73151;BME280;61354;50.758;6.106;2023-03-20T07:14:52;99596.50;;;5.70;98.82
73151;BME280;61354;50.758;6.106;2023-03-20T07:17:18;99601.25;;;6.01;98.89
73151;BME280;61354;50.758;6.106;2023-03-20T07:19:44;99611.78;;;5.99;97.58
73151;BME280;61354;50.758;6.106;2023-03-20T07:22:20;99605.47;;;5.98;97.55
73151;BME280;61354;50.758;6.106;2023-03-20T07:24:47;99603.31;;;6.18;97.72
73151;BME280;61354;50.758;6.106;2023-03-20T07:27:16;99608.28;;;6.07;97.19
73151;BME280;61354;50.758;6.106;2023-03-20T07:29:42;99621.19;;;5.98;97.52
73151;BME280;61354;50.758;6.106;2023-03-20T07:32:08;99628.16;;;5.95;97.68
73151;BME280;61354;50.758;6.106;2023-03-20T07:34:34;99624.38;;;5.91;98.03
73151;BME280;61354;50.758;6.106;2023-03-20T07:37:00;99624.06;;;5.93;98.78
73151;BME280;61354;50.758;6.106;2023-03-20T07:39:25;99624.81;;;5.85;97.95
73151;BME280;61354;50.758;6.106;2023-03-20T07:41:51;99614.41;;;6.04;98.77
73151;BME280;61354;50.758;6.106;2023-03-20T07:44:17;99618.16;;;6.08;97.87
73151;BME280;61354;50.758;6.106;2023-03-20T07:46:44;99627.75;;;6.11;98.40
73151;BME280;61354;50.758;6.106;2023-03-20T07:49:20;99624.50;;;6.09;97.77
73151;BME280;61354;50.758;6.106;2023-03-20T07:51:49;99623.91;;;6.20;97.99
73151;BME280;61354;50.758;6.106;2023-03-20T07:54:15;99630.94;;;6.27;97.62
73151;BME280;61354;50.758;6.106;2023-03-20T07:56:41;99641.44;;;6.25;96.94
73151;BME280;61354;50.758;6.106;2023-03-20T07:59:07;99646.34;;;6.28;96.32
73151;BME280;61354;50.758;6.106;2023-03-20T08:01:33;99631.72;;;5.96;97.22
73151;BME280;61354;50.758;6.106;2023-03-20T08:04:01;99647.59;;;6.21;96.92
73151;BME280;61354;50.758;6.106;2023-03-20T08:06:27;99638.91;;;6.37;96.98
73151;BME280;61354;50.758;6.106;2023-03-20T08:08:52;99647.59;;;6.21;95.96
73151;BME280;61354;50.758;6.106;2023-03-20T08:11:18;99648.47;;;6.31;96.49
73151;BME280;61354;50.758;6.106;2023-03-20T08:13:45;99640.81;;;6.28;96.49
73151;BME280;61354;50.758;6.106;2023-03-20T08:16:10;99637.59;;;6.34;95.99
73151;BME280;61354;50.758;6.106;2023-03-20T08:18:36;99644.78;;;6.44;95.37
73151;BME280;61354;50.758;6.106;2023-03-20T08:21:02;99642.50;;;6.46;95.65
73151;BME280;61354;50.758;6.106;2023-03-20T08:23:27;99635.19;;;6.41;94.38
73151;BME280;61354;50.758;6.106;2023-03-20T08:25:53;99645.47;;;6.58;93.49
73151;BME280;61354;50.758;6.106;2023-03-20T08:28:19;99632.88;;;6.75;94.05
73151;BME280;61354;50.758;6.106;2023-03-20T08:30:46;99644.22;;;6.64;91.83
73151;BME280;61354;50.758;6.106;2023-03-20T08:33:13;99640.19;;;6.79;92.03
73151;BME280;61354;50.758;6.106;2023-03-20T08:35:39;99639.81;;;6.63;88.98
73151;BME280;61354;50.758;6.106;2023-03-20T08:38:05;99643.06;;;6.57;88.09
73151;BME280;61354;50.758;6.106;2023-03-20T08:40:31;99649.84;;;6.51;87.40
73151;BME280;61354;50.758;6.106;2023-03-20T08:42:56;99645.66;;;6.62;87.79
73151;BME280;61354;50.758;6.106;2023-03-20T08:45:25;99663.19;;;6.57;86.66
73151;BME280;61354;50.758;6.106;2023-03-20T08:47:51;99661.22;;;6.58;85.01
73151;BME280;61354;50.758;6.106;2023-03-20T08:50:17;99660.47;;;6.75;86.11
73151;BME280;61354;50.758;6.106;2023-03-20T08:52:43;99658.25;;;6.85;87.18
73151;BME280;61354;50.758;6.106;2023-03-20T08:55:12;99659.50;;;6.70;85.37
73151;BME280;61354;50.758;6.106;2023-03-20T08:57:39;99654.59;;;6.67;85.52
73151;BME280;61354;50.758;6.106;2023-03-20T09:00:05;99658.56;;;6.84;85.68
73151;BME280;61354;50.758;6.106;2023-03-20T09:02:32;99660.19;;;6.85;85.85
73151;BME280;61354;50.758;6.106;2023-03-20T09:04:57;99665.50;;;6.72;84.15
73151;BME280;61354;50.758;6.106;2023-03-20T09:07:26;99661.97;;;6.41;83.90
73151;BME280;61354;50.758;6.106;2023-03-20T09:09:51;99668.50;;;6.54;83.82
73151;BME280;61354;50.758;6.106;2023-03-20T09:12:17;99669.06;;;6.64;85.07
73151;BME280;61354;50.758;6.106;2023-03-20T09:14:43;99674.88;;;6.63;84.39
73151;BME280;61354;50.758;6.106;2023-03-20T09:17:09;99668.06;;;6.60;85.27
73151;BME280;61354;50.758;6.106;2023-03-20T09:19:34;99678.97;;;6.65;86.04
73151;BME280;61354;50.758;6.106;2023-03-20T09:22:02;99681.75;;;6.74;84.35
73151;BME280;61354;50.758;6.106;2023-03-20T09:24:27;99682.06;;;6.72;85.01
73151;BME280;61354;50.758;6.106;2023-03-20T09:26:53;99673.81;;;6.41;86.55
73151;BME280;61354;50.758;6.106;2023-03-20T09:29:19;99680.56;;;6.66;88.47
73151;BME280;61354;50.758;6.106;2023-03-20T09:31:45;99675.03;;;6.58;87.46
73151;BME280;61354;50.758;6.106;2023-03-20T09:34:10;99671.78;;;6.56;88.25
73151;BME280;61354;50.758;6.106;2023-03-20T09:36:36;99682.13;;;6.50;87.96
73151;BME280;61354;50.758;6.106;2023-03-20T09:39:02;99675.13;;;6.44;88.15
73151;BME280;61354;50.758;6.106;2023-03-20T09:41:29;99677.97;;;6.61;87.37
73151;BME280;61354;50.758;6.106;2023-03-20T09:44:08;99692.13;;;6.68;87.54
73151;BME280;61354;50.758;6.106;2023-03-20T09:49:38;99681.66;;;6.48;85.87
73151;BME280;61354;50.758;6.106;2023-03-20T09:54:42;99662.25;;;6.70;87.15
73151;BME280;61354;50.758;6.106;2023-03-20T09:57:26;99674.47;;;6.87;86.73
73151;BME280;61354;50.758;6.106;2023-03-20T10:00:02;99666.63;;;6.71;85.03
73151;BME280;61354;50.758;6.106;2023-03-20T10:02:51;99679.72;;;6.97;85.86
73151;BME280;61354;50.758;6.106;2023-03-20T10:05:53;99673.66;;;6.86;84.43
73151;BME280;61354;50.758;6.106;2023-03-20T10:08:33;99667.97;;;6.83;83.80
73151;BME280;61354;50.758;6.106;2023-03-20T10:14:02;99677.19;;;6.69;84.11
73151;BME280;61354;50.758;6.106;2023-03-20T10:19:18;99683.28;;;6.89;85.10
73151;BME280;61354;50.758;6.106;2023-03-20T10:21:48;99674.63;;;6.82;83.56
73151;BME280;61354;50.758;6.106;2023-03-20T10:27:28;99674.47;;;6.78;82.71
73151;BME280;61354;50.758;6.106;2023-03-20T10:35:48;99674.38;;;6.52;83.44
73151;BME280;61354;50.758;6.106;2023-03-20T10:41:12;99672.59;;;6.56;84.00
73151;BME280;61354;50.758;6.106;2023-03-20T10:43:43;99671.00;;;6.64;83.21
73151;BME280;61354;50.758;6.106;2023-03-20T10:46:14;99676.44;;;6.46;82.96
73151;BME280;61354;50.758;6.106;2023-03-20T10:51:21;99673.38;;;6.48;83.41
73151;BME280;61354;50.758;6.106;2023-03-20T10:53:58;99668.84;;;6.52;83.15
73151;BME280;61354;50.758;6.106;2023-03-20T10:58:57;99675.34;;;6.56;82.92
73151;BME280;61354;50.758;6.106;2023-03-20T11:01:23;99667.22;;;6.51;82.29
73151;BME280;61354;50.758;6.106;2023-03-20T11:03:49;99669.00;;;6.47;83.53
73151;BME280;61354;50.758;6.106;2023-03-20T11:06:22;99678.06;;;6.47;85.77
73151;BME280;61354;50.758;6.106;2023-03-20T11:08:49;99682.84;;;6.64;88.38
73151;BME280;61354;50.758;6.106;2023-03-20T11:11:27;99671.28;;;6.54;87.55
73151;BME280;61354;50.758;6.106;2023-03-20T11:13:54;99672.09;;;6.54;88.92
73151;BME280;61354;50.758;6.106;2023-03-20T11:18:47;99665.44;;;6.55;90.73
73151;BME280;61354;50.758;6.106;2023-03-20T11:23:48;99655.53;;;6.54;91.74
73151;BME280;61354;50.758;6.106;2023-03-20T11:26:19;99658.34;;;6.71;94.04
73151;BME280;61354;50.758;6.106;2023-03-20T11:28:55;99652.19;;;6.75;94.76
73151;BME280;61354;50.758;6.106;2023-03-20T11:31:32;99651.50;;;6.60;95.28
73151;BME280;61354;50.758;6.106;2023-03-20T11:36:58;99640.16;;;6.70;95.53
73151;BME280;61354;50.758;6.106;2023-03-20T11:39:27;99637.91;;;6.72;94.92
73151;BME280;61354;50.758;6.106;2023-03-20T11:41:55;99637.75;;;6.78;94.86
73151;BME280;61354;50.758;6.106;2023-03-20T11:44:34;99632.25;;;6.78;96.20
73151;BME280;61354;50.758;6.106;2023-03-20T11:49:30;99612.09;;;6.68;94.70
73151;BME280;61354;50.758;6.106;2023-03-20T11:52:10;99610.78;;;6.75;95.42
73151;BME280;61354;50.758;6.106;2023-03-20T11:54:36;99604.19;;;6.84;95.04
73151;BME280;61354;50.758;6.106;2023-03-20T11:57:28;99590.53;;;6.96;95.62
73151;BME280;61354;50.758;6.106;2023-03-20T11:59:55;99599.84;;;7.09;96.19
73151;BME280;61354;50.758;6.106;2023-03-20T12:02:23;99591.69;;;7.04;93.39
73151;BME280;61354;50.758;6.106;2023-03-20T12:04:49;99594.78;;;7.20;94.58
73151;BME280;61354;50.758;6.106;2023-03-20T12:09:52;99591.72;;;7.39;92.61
73151;BME280;61354;50.758;6.106;2023-03-20T12:22:58;99571.38;;;8.16;88.10
73151;BME280;61354;50.758;6.106;2023-03-20T12:25:27;99562.31;;;8.07;85.85
73151;BME280;61354;50.758;6.106;2023-03-20T12:28:11;99573.50;;;8.19;86.54
73151;BME280;61354;50.758;6.106;2023-03-20T12:33:45;99553.78;;;8.30;86.52
73151;BME280;61354;50.758;6.106;2023-03-20T12:36:16;99542.44;;;8.14;82.97
73151;BME280;61354;50.758;6.106;2023-03-20T12:38:43;99556.03;;;8.28;83.67
73151;BME280;61354;50.758;6.106;2023-03-20T12:47:17;99531.34;;;8.22;82.57
73151;BME280;61354;50.758;6.106;2023-03-20T12:49:50;99538.56;;;8.44;81.93
73151;BME280;61354;50.758;6.106;2023-03-20T13:09:25;99538.63;;;8.86;77.37
73151;BME280;61354;50.758;6.106;2023-03-20T13:17:15;99535.06;;;8.86;77.05
73151;BME280;61354;50.758;6.106;2023-03-20T13:20:01;99529.31;;;8.91;77.26
73151;BME280;61354;50.758;6.106;2023-03-20T13:22:36;99540.22;;;8.66;78.14
73151;BME280;61354;50.758;6.106;2023-03-20T13:29:10;99547.06;;;8.69;78.20
73151;BME280;61354;50.758;6.106;2023-03-20T13:33:49;99533.09;;;8.86;78.52
73151;BME280;61354;50.758;6.106;2023-03-20T13:38:48;99521.78;;;8.70;78.14
73151;BME280;61354;50.758;6.106;2023-03-20T13:41:17;99523.53;;;8.84;78.79
73151;BME280;61354;50.758;6.106;2023-03-20T13:43:50;99525.94;;;9.06;77.56
73151;BME280;61354;50.758;6.106;2023-03-20T13:48:47;99524.94;;;8.90;75.75
73151;BME280;61354;50.758;6.106;2023-03-20T13:51:29;99514.06;;;8.85;75.71
73151;BME280;61354;50.758;6.106;2023-03-20T13:54:58;99531.34;;;9.03;77.14
73151;BME280;61354;50.758;6.106;2023-03-20T14:00:08;99508.25;;;8.78;74.71
73151;BME280;61354;50.758;6.106;2023-03-20T14:05:19;99511.28;;;8.85;74.59
73151;BME280;61354;50.758;6.106;2023-03-20T14:07:49;99505.88;;;8.88;75.90
73151;BME280;61354;50.758;6.106;2023-03-20T14:12:49;99499.34;;;8.93;75.70
73151;BME280;61354;50.758;6.106;2023-03-20T14:15:18;99505.81;;;8.97;76.26
73151;BME280;61354;50.758;6.106;2023-03-20T14:17:46;99496.69;;;8.96;76.48
73151;BME280;61354;50.758;6.106;2023-03-20T14:20:33;99491.03;;;8.93;75.58
73151;BME280;61354;50.758;6.106;2023-03-20T14:22:59;99495.69;;;9.01;76.30
73151;BME280;61354;50.758;6.106;2023-03-20T14:25:33;99487.91;;;8.94;76.74
73151;BME280;61354;50.758;6.106;2023-03-20T14:33:06;99487.97;;;8.86;74.58
73151;BME280;61354;50.758;6.106;2023-03-20T14:35:37;99475.00;;;8.78;73.73
73151;BME280;61354;50.758;6.106;2023-03-20T14:38:32;99485.00;;;8.91;74.09
73151;BME280;61354;50.758;6.106;2023-03-20T14:48:55;99466.91;;;8.93;74.17
73151;BME280;61354;50.758;6.106;2023-03-20T14:51:38;99462.59;;;8.84;73.89
73151;BME280;61354;50.758;6.106;2023-03-20T14:54:23;99466.63;;;8.86;73.88
73151;BME280;61354;50.758;6.106;2023-03-20T14:56:51;99463.28;;;8.81;74.58
73151;BME280;61354;50.758;6.106;2023-03-20T14:59:19;99459.63;;;8.89;73.95
73151;BME280;61354;50.758;6.106;2023-03-20T15:06:48;99454.34;;;8.96;72.35
73151;BME280;61354;50.758;6.106;2023-03-20T15:09:22;99454.34;;;8.96;71.99
73151;BME280;61354;50.758;6.106;2023-03-20T15:11:50;99460.94;;;9.04;73.33
73151;BME280;61354;50.758;6.106;2023-03-20T15:14:24;99463.16;;;9.10;72.51
73151;BME280;61354;50.758;6.106;2023-03-20T15:16:58;99459.03;;;9.16;73.25
73151;BME280;61354;50.758;6.106;2023-03-20T15:19:26;99462.53;;;9.26;72.84
73151;BME280;61354;50.758;6.106;2023-03-20T15:22:19;99442.22;;;9.21;71.60
73151;BME280;61354;50.758;6.106;2023-03-20T15:25:14;99461.16;;;9.32;73.11
73151;BME280;61354;50.758;6.106;2023-03-20T15:27:40;99454.44;;;9.20;71.10
73151;BME280;61354;50.758;6.106;2023-03-20T15:30:08;99442.41;;;9.16;71.81
73151;BME280;61354;50.758;6.106;2023-03-20T15:32:36;99441.72;;;9.19;70.98
73151;BME280;61354;50.758;6.106;2023-03-20T15:35:03;99446.59;;;9.23;72.42
73151;BME280;61354;50.758;6.106;2023-03-20T15:37:29;99437.34;;;9.18;71.93
73151;BME280;61354;50.758;6.106;2023-03-20T15:39:55;99446.81;;;9.17;72.24
73151;BME280;61354;50.758;6.106;2023-03-20T15:42:24;99435.72;;;9.17;72.43
73151;BME280;61354;50.758;6.106;2023-03-20T15:44:52;99436.41;;;9.14;71.67
73151;BME280;61354;50.758;6.106;2023-03-20T15:47:23;99432.47;;;9.15;71.45
73151;BME280;61354;50.758;6.106;2023-03-20T15:49:55;99427.66;;;9.12;70.57
73151;BME280;61354;50.758;6.106;2023-03-20T15:52:31;99427.16;;;9.10;70.12
73151;BME280;61354;50.758;6.106;2023-03-20T15:55:02;99423.09;;;9.08;70.32
73151;BME280;61354;50.758;6.106;2023-03-20T15:57:33;99433.38;;;9.07;70.14
73151;BME280;61354;50.758;6.106;2023-03-20T16:00:00;99422.78;;;9.09;71.23
73151;BME280;61354;50.758;6.106;2023-03-20T16:02:29;99423.00;;;9.04;71.02
73151;BME280;61354;50.758;6.106;2023-03-20T16:04:55;99434.31;;;9.11;71.00